Eva, Alabama
Current Conditions -  °F | °C
As of 4:55 AM on Thursday 27 Nov 2014 (Local Time) from KCMD Reporting Station
Overcast Overcast  
Wind Chill: 33°   Ceiling: 4800
Heat Index: 39°   Visibility: 10mi
Dew Point: 32°   Wind: 8mph
Humidity: 75%   Direction: 310°NW
Pressure: 30.24"   Gusts: 16mph
Location:  34.33°N, 86.76°W
Report Text: KCMD 271055Z AUTO 31007G14KT 270V340 10SM SCT037 OVC048 04/00 A3024 RMK AO2 T00391001
Loading
Personal Weather Stations






























Interactive Weather Map New forecast layout! Learn more

10-Day Weather Forecast

Advertisements
Track Severe Weather on mobile